LFBP/PUF METAR and TAF weather

Enter ICAO airport designator
Station Type Date Time Source
LFBP METAR 2022/01/26 21:00 UTC NOAA

LFBP 262100Z AUTO 08002KT 9000 NSC 01/M00 Q1031 NOSIG


Station Type Date Time Source
LFBP Decoded METAR 2022/01/26 21:00 UTC NOAA

Pau, France (LFBP) 43-23N 000-25W 185M
Jan 26, 2022 - 04:00 PM EST / 2022.01.26 2100 UTC
Wind: from the E (080 degrees) at 2 MPH (2 KT):0
Visibility: 5 mile(s):0
Temperature: 33 F (1 C)
Dew Point: 32 F (0 C)
Relative Humidity: 93%
Pressure (altimeter): 30.45 in. Hg (1031 hPa)
ob: LFBP 262100Z AUTO 08002KT 9000 NSC 01/M00 Q1031 NOSIG
cycle: 21

Station Type Date Time Source
LFBP TAF 2022/01/26 18:22 UTC NOAA

TAF LFBP 261700Z 2618/2718 04004KT CAVOK

Example: see airport list